createdAt,value
2018-05-31T06:49:08.834Z,3.30
2018-05-31T06:51:36.310Z,3.10
2018-05-31T07:06:18.991Z,3.10
2018-05-31T07:25:56.085Z,2.20
2018-05-31T07:52:54.131Z,2.03
2018-05-31T07:55:22.107Z,2.20
2018-05-31T07:57:49.600Z,1.90
2018-05-31T08:00:18.866Z,2.40
2018-05-31T08:02:47.923Z,2.12
2018-05-31T08:05:15.406Z,1.40
2018-05-31T08:07:42.945Z,1.70
2018-05-31T08:12:41.588Z,1.75
2018-05-31T08:15:09.461Z,1.40
2018-05-31T08:20:05.338Z,1.40
2018-05-31T08:39:42.757Z,1.30
2018-05-31T08:42:10.233Z,1.30
2018-05-31T08:44:38.442Z,1.20
2018-05-31T08:47:05.907Z,1.25
2018-05-31T08:49:33.502Z,1.05
2018-05-31T08:52:01.127Z,1.10
2018-05-31T08:54:28.626Z,1.12
2018-05-31T08:56:56.176Z,0.95
2018-05-31T08:59:23.861Z,0.70
2018-05-31T09:01:51.322Z,0.80
2018-05-31T09:04:18.805Z,1.35
2018-05-31T09:06:46.293Z,0.90
2018-05-31T09:09:13.771Z,0.93
2018-05-31T09:11:41.242Z,0.62
2018-05-31T09:14:08.708Z,0.80
2018-05-31T09:16:36.163Z,0.85
2018-05-31T09:19:03.668Z,0.95
2018-05-31T09:21:31.369Z,0.75
2018-05-31T09:23:58.839Z,0.77
2018-05-31T09:26:26.387Z,0.80
2018-05-31T09:28:53.886Z,1.00
2018-05-31T09:31:21.377Z,0.70
2018-05-31T09:33:48.941Z,1.12
2018-05-31T09:36:16.607Z,0.65
2018-05-31T09:38:44.169Z,0.90
2018-05-31T09:41:11.657Z,0.70
2018-05-31T09:43:40.567Z,0.85
2018-05-31T09:46:08.139Z,0.68
2018-05-31T09:48:35.611Z,0.80
2018-05-31T09:51:05.589Z,0.75
2018-05-31T09:53:33.370Z,0.52
2018-05-31T09:56:00.839Z,0.80
2018-05-31T09:58:28.551Z,0.75
2018-05-31T10:00:56.021Z,1.00
2018-05-31T10:03:23.517Z,0.85
2018-05-31T10:05:51.078Z,0.60
2018-05-31T10:08:18.573Z,0.90
2018-05-31T10:10:46.311Z,0.70
2018-05-31T10:13:14.631Z,0.93
2018-05-31T10:15:42.109Z,0.50
2018-05-31T10:18:09.581Z,0.93
2018-05-31T10:20:37.336Z,0.70
2018-05-31T10:23:04.896Z,0.60
2018-05-31T10:25:32.362Z,0.80
2018-05-31T10:27:59.858Z,0.80
2018-05-31T10:30:27.547Z,0.75
2018-05-31T10:32:55.148Z,0.62
2018-05-31T10:35:22.595Z,0.63
2018-05-31T10:37:50.148Z,0.70
2018-05-31T10:40:17.813Z,0.70
2018-05-31T10:42:45.250Z,0.95
2018-05-31T10:45:12.757Z,1.00
2018-05-31T10:47:40.228Z,1.20
2018-05-31T10:50:07.704Z,1.15
2018-05-31T10:52:35.202Z,1.23
2018-05-31T10:55:03.273Z,1.52
2018-05-31T10:57:30.772Z,1.45
2018-05-31T10:59:58.240Z,1.62
2018-05-31T11:02:25.767Z,2.08
2018-05-31T11:04:53.432Z,1.95
2018-05-31T11:07:21.003Z,1.58
2018-05-31T11:09:48.482Z,1.90
2018-05-31T11:12:15.953Z,1.80
2018-05-31T11:14:43.508Z,2.40
2018-05-31T11:17:10.968Z,2.10
2018-05-31T11:19:38.433Z,2.30
2018-05-31T11:22:06.082Z,2.27
2018-05-31T11:24:33.564Z,1.93
2018-05-31T11:27:01.013Z,2.37
2018-05-31T11:29:28.591Z,2.17
2018-05-31T11:31:56.052Z,2.40
2018-05-31T11:34:23.646Z,2.37
2018-05-31T11:36:51.083Z,1.70
2018-05-31T11:39:18.567Z,2.13
2018-05-31T11:41:46.038Z,1.90
2018-05-31T11:44:13.509Z,2.40
2018-05-31T11:46:40.959Z,2.07
2018-05-31T11:49:08.463Z,2.30
2018-05-31T11:51:35.928Z,2.13
2018-05-31T11:54:03.566Z,2.30
2018-05-31T11:56:31.012Z,1.97
2018-05-31T11:58:58.537Z,2.50
2018-05-31T12:01:26.029Z,2.03
2018-05-31T12:03:53.535Z,2.33
2018-05-31T12:06:21.002Z,2.07
2018-05-31T12:08:48.482Z,2.63
2018-05-31T12:11:16.044Z,2.17
2018-05-31T12:13:43.496Z,2.50
2018-05-31T12:16:11.119Z,2.53
2018-05-31T12:18:38.605Z,2.60
2018-05-31T12:21:06.087Z,2.27
2018-05-31T12:23:34.609Z,2.23
2018-05-31T12:26:02.145Z,2.40
2018-05-31T12:28:30.122Z,1.93
2018-05-31T12:30:57.617Z,2.20
2018-05-31T12:33:25.109Z,2.10
2018-05-31T12:35:52.581Z,2.00
2018-05-31T12:38:20.173Z,2.40
2018-05-31T12:40:47.664Z,2.33
2018-05-31T12:43:15.352Z,2.30
2018-05-31T12:45:42.803Z,1.97
2018-05-31T12:48:10.441Z,2.40
2018-05-31T12:50:37.930Z,2.37
2018-05-31T12:53:05.524Z,2.30
2018-05-31T12:55:32.988Z,1.80
2018-05-31T12:58:00.522Z,1.90
2018-05-31T13:00:27.984Z,2.33
2018-05-31T13:02:55.444Z,2.07
2018-05-31T13:05:22.944Z,2.60
2018-05-31T13:07:50.398Z,2.53
2018-05-31T13:10:17.868Z,2.00
2018-05-31T13:12:46.057Z,2.10
2018-05-31T13:15:13.519Z,2.07
2018-05-31T13:17:40.973Z,2.80
2018-05-31T13:20:08.444Z,2.17
2018-05-31T13:22:36.164Z,2.30
2018-05-31T13:25:03.708Z,2.33
2018-05-31T13:27:31.243Z,3.00
2018-05-31T13:29:58.721Z,1.87
2018-05-31T13:32:26.178Z,2.90
2018-05-31T13:34:53.659Z,2.60
2018-05-31T13:37:21.152Z,2.40
2018-05-31T13:39:48.721Z,2.90
2018-05-31T13:42:16.259Z,2.25
2018-05-31T13:44:43.706Z,2.67
2018-05-31T13:47:11.183Z,2.40
2018-05-31T13:49:38.684Z,2.90
2018-05-31T13:52:06.159Z,2.90
2018-05-31T13:54:33.622Z,2.40
2018-05-31T13:57:01.090Z,2.77
2018-05-31T13:59:28.566Z,2.60
2018-05-31T14:01:56.102Z,2.20
2018-05-31T14:06:50.910Z,2.57
2018-05-31T14:55:53.182Z,3.27
2018-05-31T14:58:20.673Z,2.97
2018-05-31T15:00:48.147Z,3.00
2018-05-31T15:03:15.751Z,3.30
2018-05-31T15:05:43.206Z,3.40
2018-05-31T15:08:10.745Z,2.95
2018-05-31T15:10:38.438Z,3.40
2018-05-31T15:13:05.925Z,3.40
2018-05-31T15:15:33.563Z,2.80
2018-05-31T15:18:01.039Z,3.20
2018-05-31T15:20:28.665Z,3.37
2018-05-31T15:22:56.203Z,3.10
2018-05-31T15:25:24.144Z,3.20
2018-05-31T15:27:51.617Z,3.00
2018-05-31T15:30:19.221Z,3.00
2018-05-31T15:32:46.716Z,3.07
2018-05-31T15:35:14.192Z,2.93
2018-05-31T15:37:41.699Z,2.73
2018-05-31T15:40:10.116Z,9.13
2018-05-31T15:42:37.729Z,2.90
2018-05-31T15:45:05.389Z,3.10
2018-05-31T15:47:32.940Z,3.40
2018-05-31T15:50:00.403Z,3.30
2018-05-31T15:52:27.874Z,2.80
2018-05-31T15:54:55.330Z,3.17
2018-05-31T15:57:22.840Z,3.00
2018-05-31T15:59:50.294Z,2.90
2018-05-31T16:02:17.751Z,2.83
2018-05-31T16:04:45.435Z,3.40
2018-05-31T16:07:12.929Z,2.50
2018-05-31T16:09:40.385Z,2.90
2018-05-31T16:12:07.843Z,3.23
2018-05-31T16:14:35.421Z,2.60
2018-05-31T16:17:02.893Z,2.60
2018-05-31T16:19:30.385Z,2.63
2018-05-31T16:21:57.865Z,2.27
2018-05-31T16:24:25.344Z,2.70
2018-05-31T16:26:52.817Z,2.93
2018-05-31T16:29:20.394Z,3.00
2018-05-31T16:31:47.866Z,2.80
2018-05-31T16:34:15.448Z,3.03
2018-05-31T16:36:43.075Z,2.63
2018-05-31T16:39:10.555Z,8.93
2018-05-31T16:41:38.019Z,5.03
2018-05-31T16:44:05.504Z,3.17
2018-05-31T16:46:32.984Z,3.10
2018-05-31T16:49:00.610Z,3.50
2018-05-31T16:51:28.059Z,2.93
2018-05-31T16:53:55.533Z,2.70
2018-05-31T16:56:23.026Z,3.30
2018-05-31T16:58:50.708Z,3.10
2018-05-31T17:01:18.169Z,2.90
2018-05-31T17:03:45.685Z,3.00
2018-05-31T17:06:13.169Z,2.90
2018-05-31T17:08:40.630Z,2.67
2018-05-31T17:11:08.094Z,3.55
2018-05-31T17:13:35.603Z,3.00
2018-05-31T17:16:04.295Z,3.05
2018-05-31T17:18:31.811Z,2.67
2018-05-31T17:20:59.896Z,2.80
2018-05-31T17:23:27.418Z,2.60
2018-05-31T17:25:54.950Z,3.37
2018-05-31T17:28:22.664Z,3.10
2018-05-31T17:30:50.205Z,4.10
2018-05-31T17:33:17.760Z,3.13
2018-05-31T17:35:45.220Z,3.13
2018-05-31T17:38:12.869Z,3.13
2018-05-31T17:40:40.511Z,3.10
2018-05-31T17:43:07.990Z,2.93
2018-05-31T17:45:35.606Z,2.67
2018-05-31T17:48:03.165Z,2.90
2018-05-31T17:50:30.655Z,3.00
2018-05-31T17:52:58.285Z,2.57
2018-05-31T17:55:25.758Z,3.80
2018-05-31T17:57:53.398Z,3.00
2018-05-31T18:13:58.791Z,3.27
2018-05-31T18:16:26.258Z,2.93
2018-05-31T18:18:53.841Z,3.50
2018-05-31T18:21:21.304Z,3.07
2018-05-31T18:23:48.779Z,2.70
2018-05-31T18:26:16.252Z,3.20
2018-05-31T18:28:43.710Z,3.20
2018-05-31T18:31:11.196Z,3.40
2018-05-31T18:33:38.704Z,3.87
2018-05-31T18:36:06.135Z,3.15
2018-05-31T18:38:33.590Z,3.40
2018-05-31T18:41:01.078Z,3.50
2018-05-31T18:43:28.875Z,3.47
2018-05-31T18:45:56.367Z,3.40
2018-05-31T18:48:24.225Z,3.13
2018-05-31T18:50:51.800Z,3.80
2018-05-31T19:03:07.827Z,3.60
2018-05-31T19:47:45.490Z,3.80
2018-05-31T19:52:45.660Z,4.50
2018-05-31T19:55:13.129Z,3.90
2018-05-31T19:57:46.527Z,3.70
2018-05-31T20:00:19.795Z,4.20
2018-05-31T20:10:46.250Z,4.13
2018-05-31T20:13:13.863Z,3.60
2018-05-31T20:15:41.536Z,4.30
2018-05-31T20:18:09.025Z,4.20
2018-05-31T20:20:36.510Z,3.85
2018-05-31T20:23:03.972Z,4.73
2018-05-31T20:25:31.580Z,3.90
2018-05-31T20:27:59.060Z,5.45
2018-05-31T20:42:41.877Z,4.17
2018-05-31T20:45:09.582Z,4.37
2018-05-31T20:50:04.260Z,4.80
2018-05-31T20:52:31.751Z,4.90
2018-05-31T20:54:59.216Z,4.80
2018-05-31T20:57:26.680Z,4.30
2018-05-31T20:59:54.178Z,5.40
2018-05-31T21:02:21.638Z,5.10
2018-05-31T21:04:49.101Z,5.45
2018-05-31T21:07:16.894Z,4.90
2018-05-31T21:09:44.410Z,5.50
